createdAt,value
2022-09-25T09:16:25.669Z,1.45
2022-09-25T09:19:20.145Z,1.50
2022-09-25T09:51:13.913Z,1.33
2022-09-25T09:54:26.029Z,1.00
2022-09-25T12:15:36.558Z,1.08
2022-09-25T12:18:34.570Z,1.10
2022-09-25T12:31:31.918Z,0.73
2022-09-25T12:34:36.486Z,0.70
2022-09-25T12:37:25.515Z,1.00
2022-09-25T12:40:07.765Z,0.73
2022-09-25T12:42:51.156Z,0.65
2022-09-25T12:45:26.591Z,0.80
2022-09-25T12:48:11.975Z,0.75
2022-09-25T12:50:49.002Z,0.70
2022-09-25T12:53:30.554Z,0.80
2022-09-25T12:56:06.236Z,0.63
2022-09-25T12:59:00.052Z,0.63
2022-09-25T13:01:34.919Z,0.63
2022-09-25T13:04:19.552Z,0.90
2022-09-25T13:06:52.588Z,0.82
2022-09-25T13:09:34.066Z,0.75
2022-09-25T13:12:07.000Z,0.50
2022-09-25T13:14:42.897Z,0.50
2022-09-25T13:17:16.019Z,0.80
2022-09-25T13:19:58.611Z,0.70
2022-09-25T13:22:35.389Z,0.80
2022-09-25T13:25:32.033Z,0.85
2022-09-25T14:18:34.247Z,0.80
2022-09-25T14:47:11.051Z,1.02
2022-09-25T14:53:40.562Z,0.88
2022-09-25T14:57:10.223Z,0.90
2022-09-25T15:00:46.257Z,0.82
2022-09-25T15:03:53.879Z,0.80
2022-09-25T15:07:34.152Z,0.85
2022-09-25T15:10:03.137Z,0.60
2022-09-25T15:12:44.075Z,1.25
2022-09-25T15:15:17.743Z,1.08
2022-09-25T15:17:59.822Z,0.70
2022-09-25T15:20:32.549Z,0.73
2022-09-25T15:23:24.719Z,0.70
2022-09-25T15:29:41.719Z,0.70
2022-09-25T15:58:23.642Z,1.15
2022-09-25T16:01:28.801Z,1.20
2022-09-25T16:04:18.856Z,1.05
2022-09-25T16:06:50.008Z,0.90
2022-09-25T16:18:06.547Z,1.10
2022-09-25T16:33:09.024Z,2.22
2022-09-25T16:36:12.948Z,1.20
2022-09-25T16:46:58.691Z,1.30
2022-09-25T17:05:18.288Z,1.85
2022-09-25T17:08:13.920Z,2.03
2022-09-25T17:25:48.163Z,1.33
2022-09-25T19:39:13.742Z,4.18
2022-09-25T19:51:36.999Z,4.28
